createdAt,value
2018-12-19T00:00:15.539Z,4.70
2018-12-19T00:02:43.573Z,6.28
2018-12-19T00:05:11.710Z,5.80
2018-12-19T00:07:39.844Z,4.95
2018-12-19T00:10:08.595Z,5.50
2018-12-19T00:12:36.650Z,5.62
2018-12-19T00:15:04.819Z,5.20
2018-12-19T00:17:32.649Z,5.83
2018-12-19T00:20:00.716Z,4.58
2018-12-19T00:22:28.751Z,6.12
2018-12-19T00:24:56.679Z,5.20
2018-12-19T00:27:24.713Z,4.40
2018-12-19T00:29:52.741Z,5.15
2018-12-19T00:32:20.878Z,4.58
2018-12-19T00:34:48.890Z,4.78
2018-12-19T00:37:18.459Z,4.90
2018-12-19T00:39:47.628Z,4.03
2018-12-19T00:42:15.871Z,5.05
2018-12-19T00:44:43.704Z,5.00
2018-12-19T00:47:11.636Z,3.87
2018-12-19T00:49:39.570Z,4.85
2018-12-19T00:52:07.338Z,4.05
2018-12-19T00:54:35.172Z,4.50
2018-12-19T00:57:03.004Z,3.60
2018-12-19T00:59:31.358Z,4.08
2018-12-19T01:01:59.614Z,4.42
2018-12-19T01:04:27.538Z,5.40
2018-12-19T01:06:55.673Z,5.55
2018-12-19T01:09:23.503Z,4.28
2018-12-19T01:11:51.942Z,4.22
2018-12-19T01:14:20.279Z,3.58
2018-12-19T01:16:48.210Z,5.12
2018-12-19T01:19:16.144Z,4.35
2018-12-19T01:21:44.168Z,5.00
2018-12-19T01:24:13.699Z,4.80
2018-12-19T01:26:41.951Z,5.25
2018-12-19T01:29:10.002Z,4.90
2018-12-19T01:31:39.264Z,3.95
2018-12-19T01:34:08.521Z,4.70
2018-12-19T01:36:37.834Z,5.25
2018-12-19T01:39:06.580Z,4.72
2018-12-19T01:41:34.374Z,4.28
2018-12-19T01:44:03.897Z,5.08
2018-12-19T01:46:31.921Z,6.45
2018-12-19T01:48:59.766Z,4.42
2018-12-19T01:51:28.228Z,4.12
2018-12-19T01:53:56.267Z,3.65
2018-12-19T01:56:24.066Z,4.67
2018-12-19T01:58:52.008Z,5.33
2018-12-19T02:01:20.033Z,4.22
2018-12-19T02:03:48.883Z,4.83
2018-12-19T02:06:16.979Z,4.53
2018-12-19T02:08:44.747Z,4.65
2018-12-19T02:11:12.671Z,5.28
2018-12-19T02:13:40.707Z,4.75
2018-12-19T02:16:10.253Z,4.20
2018-12-19T02:18:38.514Z,4.42
2018-12-19T02:21:06.337Z,5.72
2018-12-19T02:23:34.041Z,4.35
2018-12-19T02:26:01.793Z,3.90
2018-12-19T02:28:30.230Z,3.27
2018-12-19T02:30:58.161Z,4.42
2018-12-19T02:33:26.093Z,4.62
2018-12-19T02:35:54.636Z,4.72
2018-12-19T02:38:22.672Z,4.33
2018-12-19T02:40:50.599Z,4.22
2018-12-19T02:43:18.528Z,4.33
2018-12-19T02:45:47.893Z,5.87
2018-12-19T02:48:15.718Z,4.37
2018-12-19T02:50:44.580Z,5.60
2018-12-19T02:53:12.495Z,6.95
2018-12-19T02:55:40.323Z,3.72
2018-12-19T02:58:08.073Z,4.05
2018-12-19T03:00:35.980Z,5.75
2018-12-19T03:03:04.681Z,5.35
2018-12-19T03:05:32.450Z,5.90
2018-12-19T03:08:00.380Z,5.45
2018-12-19T03:10:29.240Z,4.95
2018-12-19T03:12:57.777Z,5.30
2018-12-19T03:15:25.602Z,6.83
2018-12-19T03:17:53.528Z,6.75
2018-12-19T03:20:21.952Z,6.45
2018-12-19T03:22:49.979Z,4.62
2018-12-19T03:25:17.840Z,5.60
2018-12-19T03:27:45.925Z,4.30
2018-12-19T03:30:13.863Z,4.92
2018-12-19T03:32:41.891Z,5.20
2018-12-19T03:35:10.743Z,6.55
2018-12-19T03:37:38.676Z,5.72
2018-12-19T03:40:06.815Z,6.40
2018-12-19T03:42:34.739Z,7.28
2018-12-19T03:45:02.531Z,7.22
2018-12-19T03:47:30.518Z,6.55
2018-12-19T03:49:58.427Z,6.28
2018-12-19T03:52:26.456Z,6.17
2018-12-19T03:54:54.388Z,6.75
2018-12-19T03:57:24.367Z,6.75
2018-12-19T03:59:52.199Z,8.63
2018-12-19T04:02:20.331Z,6.05
2018-12-19T04:04:48.162Z,6.17
2018-12-19T04:07:15.992Z,8.55
2018-12-19T04:09:44.023Z,7.00
2018-12-19T04:12:12.259Z,7.10
2018-12-19T04:14:40.206Z,5.62
2018-12-19T04:17:08.275Z,7.05
2018-12-19T04:19:36.042Z,6.95
2018-12-19T04:22:04.010Z,8.03
2018-12-19T04:24:31.894Z,7.30
2018-12-19T04:26:59.825Z,7.62
2018-12-19T04:29:27.649Z,7.17
2018-12-19T04:31:55.478Z,4.65
2018-12-19T04:34:23.406Z,5.17
2018-12-19T04:36:51.335Z,6.83
2018-12-19T04:39:19.159Z,7.28
2018-12-19T04:41:47.504Z,5.90
2018-12-19T04:44:15.535Z,6.22
2018-12-19T04:46:43.357Z,7.33
2018-12-19T04:49:12.107Z,7.55
2018-12-19T04:51:40.143Z,6.93
2018-12-19T04:54:08.072Z,7.60
2018-12-19T04:56:36.112Z,6.53
2018-12-19T04:59:04.059Z,6.47
2018-12-19T05:01:32.073Z,5.25
2018-12-19T05:04:00.002Z,4.20
2018-12-19T05:06:28.037Z,7.05
2018-12-19T05:08:55.966Z,6.70
2018-12-19T05:11:24.310Z,7.70
2018-12-19T05:13:52.143Z,5.80
2018-12-19T05:16:20.070Z,5.78
2018-12-19T05:18:47.996Z,6.30
2018-12-19T05:21:15.781Z,4.40
2018-12-19T05:23:43.652Z,7.47
2018-12-19T05:26:11.881Z,5.42
2018-12-19T05:28:39.807Z,7.45
2018-12-19T05:31:07.738Z,7.87
2018-12-19T05:33:36.078Z,8.23
2018-12-19T05:36:03.895Z,6.62
2018-12-19T05:38:32.037Z,7.10
2018-12-19T05:41:00.380Z,6.40
2018-12-19T05:43:28.265Z,8.48
2018-12-19T05:45:56.144Z,3.42
2018-12-19T05:48:24.070Z,7.75
2018-12-19T05:50:51.891Z,7.53
2018-12-19T05:53:21.053Z,7.80
2018-12-19T05:55:48.979Z,8.07
2018-12-19T05:58:16.811Z,7.60
2018-12-19T06:00:44.626Z,7.80
2018-12-19T06:03:12.558Z,6.42
2018-12-19T06:05:40.392Z,6.50
2018-12-19T06:08:09.238Z,6.97
2018-12-19T06:10:37.944Z,7.27
2018-12-19T06:13:05.713Z,7.27
2018-12-19T06:15:33.493Z,6.67
2018-12-19T06:18:03.007Z,8.38
2018-12-19T06:20:31.342Z,7.70
2018-12-19T06:22:59.476Z,8.75
2018-12-19T06:25:27.409Z,6.50
2018-12-19T06:27:55.438Z,6.17
2018-12-19T06:30:27.116Z,5.62
2018-12-19T06:32:55.295Z,7.12
2018-12-19T06:35:23.221Z,6.77
2018-12-19T06:37:51.357Z,6.47
2018-12-19T06:40:19.183Z,6.83
2018-12-19T06:42:47.014Z,7.53
2018-12-19T06:45:15.661Z,5.90
2018-12-19T06:47:43.590Z,7.35
2018-12-19T06:50:11.355Z,6.97
2018-12-19T06:52:39.963Z,7.80
2018-12-19T06:55:07.790Z,5.85
2018-12-19T06:57:35.721Z,6.05
2018-12-19T07:00:06.861Z,6.70
2018-12-19T07:02:34.775Z,7.90
2018-12-19T07:05:02.588Z,6.05
2018-12-19T07:07:30.810Z,7.20
2018-12-19T07:09:58.808Z,7.97
2018-12-19T07:12:27.503Z,5.47
2018-12-19T07:14:55.993Z,9.63
2018-12-19T07:17:23.877Z,7.78
2018-12-19T07:19:51.801Z,8.38
2018-12-19T07:22:19.629Z,7.20
2018-12-19T07:24:47.558Z,6.90
2018-12-19T07:27:15.490Z,6.22
2018-12-19T07:29:43.315Z,6.53
2018-12-19T07:32:11.147Z,6.87
2018-12-19T07:34:44.238Z,7.20
2018-12-19T07:37:10.553Z,7.53
2018-12-19T07:39:38.328Z,7.30
2018-12-19T07:42:06.188Z,8.68
2018-12-19T07:44:33.934Z,7.10
2018-12-19T07:47:02.117Z,7.53
2018-12-19T07:49:31.270Z,7.40
2018-12-19T07:51:59.093Z,9.10
2018-12-19T07:54:27.023Z,6.80
2018-12-19T07:56:55.053Z,6.77
2018-12-19T07:59:22.942Z,4.97
2018-12-19T08:01:50.809Z,9.13
2018-12-19T08:04:19.466Z,7.90
2018-12-19T08:06:47.343Z,7.90
2018-12-19T08:09:15.225Z,4.35
2018-12-19T08:11:43.550Z,8.03
2018-12-19T08:14:11.481Z,3.87
2018-12-19T08:16:39.409Z,9.10
2018-12-19T08:19:07.240Z,8.55
2018-12-19T08:21:35.025Z,8.43
2018-12-19T08:24:03.057Z,5.85
2018-12-19T08:26:31.759Z,8.18
2018-12-19T08:28:59.786Z,8.85
2018-12-19T08:31:27.609Z,6.10
2018-12-19T08:33:55.537Z,7.70
2018-12-19T08:36:23.877Z,7.43
2018-12-19T08:38:51.910Z,9.70
2018-12-19T08:41:19.777Z,8.87
2018-12-19T08:43:47.767Z,8.17
2018-12-19T08:46:15.759Z,6.00
2018-12-19T08:48:44.055Z,8.47
2018-12-19T08:51:12.062Z,8.07
2018-12-19T08:53:40.198Z,7.67
2018-12-19T08:56:08.331Z,8.13
2018-12-19T08:58:36.267Z,8.53
2018-12-19T09:01:04.088Z,8.03
2018-12-19T09:03:31.914Z,8.13
2018-12-19T09:06:00.028Z,8.10
2018-12-19T09:08:28.387Z,7.53
2018-12-19T09:10:56.560Z,8.57
2018-12-19T09:13:24.558Z,7.70
2018-12-19T09:15:52.540Z,7.97
2018-12-19T09:18:20.516Z,7.43
2018-12-19T09:20:48.955Z,8.07
2018-12-19T09:23:16.884Z,10.13
2018-12-19T09:25:44.715Z,10.30
2018-12-19T09:28:13.465Z,8.07
2018-12-19T09:30:41.703Z,5.27
2018-12-19T09:33:09.982Z,8.63
2018-12-19T09:35:37.860Z,6.53
2018-12-19T09:38:05.695Z,7.33
2018-12-19T09:40:33.615Z,9.00
2018-12-19T09:43:01.446Z,6.03
2018-12-19T09:45:29.483Z,8.27
2018-12-19T09:47:57.304Z,8.47
2018-12-19T09:50:25.601Z,7.83
2018-12-19T09:52:53.578Z,8.87
2018-12-19T09:55:21.915Z,8.73
2018-12-19T09:57:49.845Z,9.13
2018-12-19T10:00:23.308Z,7.57
2018-12-19T10:02:51.252Z,8.97
2018-12-19T10:05:19.065Z,7.57
2018-12-19T10:07:46.996Z,7.67
2018-12-19T10:10:14.923Z,8.27
2018-12-19T10:12:43.545Z,7.83
2018-12-19T10:15:11.400Z,7.40
2018-12-19T10:17:41.054Z,6.43
2018-12-19T10:20:10.433Z,7.57
2018-12-19T10:22:38.258Z,5.27
2018-12-19T10:25:12.747Z,5.10
2018-12-19T10:27:40.781Z,7.93
2018-12-19T10:30:12.503Z,7.33
2018-12-19T10:32:41.439Z,7.90
2018-12-19T10:35:10.330Z,7.80
2018-12-19T10:37:38.448Z,5.73
2018-12-19T10:40:08.633Z,7.37
2018-12-19T10:42:36.457Z,6.03
2018-12-19T10:45:06.100Z,7.53
2018-12-19T10:47:33.844Z,7.90
2018-12-19T10:50:01.735Z,7.17
2018-12-19T10:52:29.774Z,7.77
2018-12-19T10:54:57.630Z,7.93
2018-12-19T10:57:25.965Z,7.00
2018-12-19T10:59:53.897Z,7.23
2018-12-19T11:02:22.293Z,5.93
2018-12-19T11:04:50.155Z,8.07
2018-12-19T11:07:18.128Z,8.17
2018-12-19T11:09:46.213Z,7.53
2018-12-19T11:12:14.247Z,9.07
2018-12-19T11:14:42.170Z,6.43
2018-12-19T11:17:10.324Z,7.97
2018-12-19T11:19:39.055Z,8.37
2018-12-19T11:22:09.033Z,7.57
2018-12-19T11:24:36.960Z,8.67
2018-12-19T11:27:04.990Z,9.20
2018-12-19T11:29:32.718Z,8.47
2018-12-19T11:32:00.543Z,7.40
2018-12-19T11:34:29.396Z,9.00
2018-12-19T11:36:57.222Z,8.37
2018-12-19T11:39:25.148Z,8.43
2018-12-19T11:41:53.390Z,8.77
2018-12-19T11:44:21.215Z,7.17
2018-12-19T11:46:49.248Z,7.73
2018-12-19T11:49:17.076Z,6.30
2018-12-19T11:51:45.004Z,7.33
2018-12-19T11:54:13.045Z,6.47
2018-12-19T11:56:41.071Z,7.33
2018-12-19T11:59:09.099Z,8.30
2018-12-19T12:01:41.367Z,7.37
2018-12-19T12:04:06.905Z,9.53
2018-12-19T12:06:34.829Z,6.23
2018-12-19T12:09:02.867Z,8.70
2018-12-19T12:11:30.873Z,9.57
2018-12-19T12:13:59.213Z,9.33
2018-12-19T12:16:27.856Z,8.63
2018-12-19T12:18:56.108Z,8.77
2018-12-19T12:21:24.037Z,8.67
2018-12-19T12:23:52.174Z,7.87
2018-12-19T12:26:20.097Z,8.43
2018-12-19T12:28:48.336Z,6.10
2018-12-19T12:31:16.364Z,8.23
2018-12-19T12:33:44.193Z,10.13
2018-12-19T12:36:12.120Z,7.83
2018-12-19T12:38:40.051Z,9.90
2018-12-19T12:41:08.185Z,9.10
2018-12-19T12:43:36.112Z,7.33
2018-12-19T12:46:03.989Z,10.60
2018-12-19T12:48:32.150Z,9.23
2018-12-19T12:51:00.207Z,9.03
2018-12-19T12:53:28.251Z,10.73
2018-12-19T12:55:56.265Z,10.90
2018-12-19T12:58:24.196Z,10.13
2018-12-19T13:00:52.404Z,9.53
2018-12-19T13:03:20.340Z,9.60
2018-12-19T13:05:48.561Z,9.50
2018-12-19T13:08:17.344Z,9.60
2018-12-19T13:10:45.413Z,9.67
2018-12-19T13:13:13.594Z,9.40
2018-12-19T13:15:43.725Z,8.90
2018-12-19T13:18:12.581Z,9.33
2018-12-19T13:20:41.282Z,9.53
2018-12-19T13:23:09.517Z,8.63
2018-12-19T13:25:37.383Z,9.53
2018-12-19T13:28:05.364Z,11.13
2018-12-19T13:30:33.289Z,9.33
2018-12-19T13:33:01.114Z,9.43
2018-12-19T13:35:29.132Z,10.13
2018-12-19T13:37:57.332Z,7.63
2018-12-19T13:40:25.293Z,9.60
2018-12-19T13:42:53.200Z,8.90
2018-12-19T13:45:21.092Z,8.73
2018-12-19T13:47:48.922Z,9.60
2018-12-19T13:50:16.906Z,8.73
2018-12-19T13:52:44.780Z,10.20
2018-12-19T13:55:12.781Z,10.83
2018-12-19T13:57:40.751Z,10.57
2018-12-19T14:00:09.763Z,10.57
2018-12-19T14:02:38.089Z,10.33
2018-12-19T14:05:06.012Z,8.43
2018-12-19T14:07:33.871Z,9.03
2018-12-19T14:10:02.075Z,7.80
2018-12-19T14:12:30.063Z,9.70
2018-12-19T14:14:58.036Z,6.87
2018-12-19T14:17:25.914Z,8.20
2018-12-19T14:19:53.846Z,9.23
2018-12-19T14:22:22.698Z,9.27
2018-12-19T14:24:50.690Z,7.00
2018-12-19T14:27:18.867Z,9.97
2018-12-19T14:29:47.002Z,10.53
2018-12-19T14:32:14.942Z,9.97
2018-12-19T14:34:42.878Z,9.53
2018-12-19T14:37:10.926Z,10.97
2018-12-19T14:39:38.751Z,9.87
2018-12-19T14:42:06.590Z,10.50
2018-12-19T14:44:34.825Z,9.97
2018-12-19T14:47:02.664Z,9.07
2018-12-19T14:49:30.492Z,9.70
2018-12-19T14:51:58.326Z,8.90
2018-12-19T14:54:26.171Z,10.20
2018-12-19T14:56:53.996Z,8.83
2018-12-19T14:59:21.818Z,9.73
2018-12-19T15:01:50.072Z,9.30
2018-12-19T15:04:17.980Z,11.00
2018-12-19T15:06:45.804Z,9.87
2018-12-19T15:09:13.940Z,9.60
2018-12-19T15:11:42.176Z,10.07
2018-12-19T15:14:10.106Z,9.60
2018-12-19T15:16:38.272Z,7.73
2018-12-19T15:19:06.622Z,9.83
2018-12-19T15:21:37.873Z,9.83
2018-12-19T15:24:06.163Z,9.27
2018-12-19T15:26:34.415Z,10.50
2018-12-19T15:29:02.400Z,9.57
2018-12-19T15:31:30.518Z,9.03
2018-12-19T15:33:58.604Z,8.43
2018-12-19T15:36:27.201Z,9.43
2018-12-19T15:38:55.104Z,9.30
2018-12-19T15:41:22.924Z,9.83
2018-12-19T15:43:50.886Z,10.07
2018-12-19T15:46:18.984Z,9.87
2018-12-19T15:48:46.881Z,8.57
2018-12-19T15:51:14.821Z,8.60
2018-12-19T15:53:42.974Z,9.27
2018-12-19T15:56:10.923Z,10.10
2018-12-19T15:58:38.929Z,9.83
2018-12-19T16:01:06.861Z,9.63
2018-12-19T16:03:34.652Z,9.00
2018-12-19T16:06:02.614Z,10.27
2018-12-19T16:08:30.442Z,8.67
2018-12-19T16:10:58.576Z,10.37
2018-12-19T16:13:26.613Z,9.07
2018-12-19T16:15:54.750Z,8.67
2018-12-19T16:18:22.861Z,9.80
2018-12-19T16:20:51.845Z,7.83
2018-12-19T16:23:19.813Z,10.43
2018-12-19T16:25:47.979Z,11.43
2018-12-19T16:28:15.937Z,10.43
2018-12-19T16:30:44.073Z,9.60
2018-12-19T16:33:12.576Z,9.17
2018-12-19T16:35:40.761Z,8.53
2018-12-19T16:38:09.865Z,8.27
2018-12-19T16:40:38.200Z,8.80
2018-12-19T16:43:06.327Z,8.23
2018-12-19T16:45:34.565Z,9.53
2018-12-19T16:48:03.001Z,9.97
2018-12-19T16:50:30.877Z,8.00
2018-12-19T16:52:59.215Z,9.03
2018-12-19T16:55:27.263Z,11.37
2018-12-19T16:57:55.498Z,8.30
2018-12-19T17:00:24.034Z,8.33
2018-12-19T17:02:52.294Z,7.83
2018-12-19T17:05:20.662Z,8.70
2018-12-19T17:07:50.204Z,9.17
2018-12-19T17:10:18.515Z,8.70
2018-12-19T17:12:52.613Z,8.87
2018-12-19T17:15:17.783Z,10.50
2018-12-19T17:17:46.376Z,8.03
2018-12-19T17:20:14.649Z,8.57
2018-12-19T17:22:43.665Z,9.47
2018-12-19T17:25:12.368Z,8.40
2018-12-19T17:27:41.205Z,7.60
2018-12-19T17:30:09.671Z,9.50
2018-12-19T17:32:38.634Z,10.27
2018-12-19T17:35:06.733Z,9.10
2018-12-19T17:37:34.678Z,9.17
2018-12-19T17:40:03.940Z,9.23
2018-12-19T17:42:31.968Z,9.00
2018-12-19T17:45:00.497Z,9.40
2018-12-19T17:47:28.857Z,9.20
2018-12-19T17:49:57.423Z,10.67
2018-12-19T17:52:26.630Z,10.23
2018-12-19T17:54:55.563Z,11.23
2018-12-19T17:57:24.286Z,9.53
2018-12-19T17:59:52.729Z,8.93
2018-12-19T18:02:20.951Z,8.63
2018-12-19T18:04:49.752Z,8.87
2018-12-19T18:07:18.266Z,9.33
2018-12-19T18:09:47.641Z,8.57
2018-12-19T18:12:16.215Z,8.63
2018-12-19T18:14:44.473Z,8.47
2018-12-19T18:17:13.083Z,9.73
2018-12-19T18:19:41.467Z,8.67
2018-12-19T18:22:10.367Z,9.43
2018-12-19T18:24:39.133Z,8.93
2018-12-19T18:27:07.954Z,9.60
2018-12-19T18:29:36.078Z,9.37
2018-12-19T18:32:04.410Z,8.70
2018-12-19T18:34:33.013Z,9.40
2018-12-19T18:37:01.702Z,7.60
2018-12-19T18:39:31.432Z,9.70
2018-12-19T18:42:00.000Z,10.13
2018-12-19T18:44:28.665Z,8.87
2018-12-19T18:46:57.251Z,9.53
2018-12-19T18:49:25.804Z,9.77
2018-12-19T18:51:54.327Z,9.37
2018-12-19T18:54:23.094Z,10.43
2018-12-19T18:56:51.815Z,8.80
2018-12-19T18:59:20.485Z,10.77
2018-12-19T19:01:49.258Z,8.40
2018-12-19T19:04:18.272Z,8.97
2018-12-19T19:06:47.145Z,10.70
2018-12-19T19:09:16.046Z,8.17
2018-12-19T19:11:44.720Z,9.03
2018-12-19T19:14:13.420Z,8.57
2018-12-19T19:16:41.955Z,7.13
2018-12-19T19:19:10.808Z,8.17
2018-12-19T19:21:40.391Z,7.77
2018-12-19T19:24:09.373Z,10.23
2018-12-19T19:26:37.759Z,9.50
2018-12-19T19:29:06.884Z,9.40
2018-12-19T19:31:34.952Z,9.30
2018-12-19T19:34:03.189Z,8.53
2018-12-19T19:36:31.839Z,7.43
2018-12-19T19:39:00.325Z,7.47
2018-12-19T19:41:28.917Z,7.50
2018-12-19T19:43:57.500Z,9.33
2018-12-19T19:46:26.207Z,8.60
2018-12-19T19:48:55.015Z,7.20
2018-12-19T19:51:23.698Z,8.93
2018-12-19T19:53:52.477Z,9.93
2018-12-19T19:56:21.197Z,9.03
2018-12-19T19:58:50.350Z,8.63
2018-12-19T20:01:18.885Z,7.50
2018-12-19T20:03:48.096Z,9.13
2018-12-19T20:06:16.794Z,7.83
2018-12-19T20:08:45.243Z,8.57
2018-12-19T20:11:14.267Z,8.50
2018-12-19T20:13:43.530Z,7.63
2018-12-19T20:16:12.623Z,7.67
2018-12-19T20:18:41.139Z,10.00
2018-12-19T20:21:10.188Z,7.43
2018-12-19T20:23:38.790Z,8.40
2018-12-19T20:26:07.523Z,9.33
2018-12-19T20:28:35.987Z,8.83
2018-12-19T20:31:04.890Z,7.90
2018-12-19T20:33:33.087Z,8.80
2018-12-19T20:36:01.392Z,8.73
2018-12-19T20:38:30.969Z,6.30
2018-12-19T20:41:00.069Z,8.87
2018-12-19T20:43:28.585Z,9.13
2018-12-19T20:45:57.306Z,10.70
2018-12-19T20:48:26.149Z,8.90
2018-12-19T20:50:55.471Z,8.43
2018-12-19T20:53:24.069Z,10.00
2018-12-19T20:55:52.798Z,9.63
2018-12-19T20:58:21.684Z,9.70
2018-12-19T21:00:50.292Z,8.73
2018-12-19T21:03:18.905Z,8.67
2018-12-19T21:05:47.391Z,9.00
2018-12-19T21:08:16.059Z,8.73
2018-12-19T21:10:44.635Z,8.60
2018-12-19T21:13:12.676Z,8.27
2018-12-19T21:15:41.379Z,8.60
2018-12-19T21:18:16.357Z,8.77
2018-12-19T21:20:45.175Z,8.00
2018-12-19T21:23:13.738Z,7.67
2018-12-19T21:25:42.185Z,8.57
2018-12-19T21:28:11.019Z,7.03
2018-12-19T21:30:39.579Z,8.27
2018-12-19T21:33:13.830Z,8.70
2018-12-19T21:35:38.448Z,8.07
2018-12-19T21:38:06.527Z,6.83
2018-12-19T21:40:34.598Z,9.17
2018-12-19T21:43:02.834Z,8.97
2018-12-19T21:45:31.302Z,8.53
2018-12-19T21:47:59.729Z,8.83
2018-12-19T21:50:27.836Z,9.40
2018-12-19T21:52:58.413Z,9.90
2018-12-19T21:55:27.306Z,10.37
2018-12-19T21:57:55.759Z,6.57
2018-12-19T22:00:25.321Z,9.87
2018-12-19T22:02:53.345Z,6.77
2018-12-19T22:05:21.293Z,9.47
2018-12-19T22:07:50.274Z,9.47
2018-12-19T22:10:18.560Z,8.17
2018-12-19T22:12:46.567Z,9.17
2018-12-19T22:15:14.712Z,10.13
2018-12-19T22:17:48.115Z,9.37
2018-12-19T22:20:16.101Z,8.17
2018-12-19T22:22:43.923Z,9.73
2018-12-19T22:25:11.853Z,8.57
2018-12-19T22:27:39.845Z,9.13
2018-12-19T22:30:08.160Z,11.10
2018-12-19T22:32:36.413Z,9.20
2018-12-19T22:35:04.801Z,9.27
2018-12-19T22:37:33.148Z,11.97
2018-12-19T22:40:01.105Z,7.57
2018-12-19T22:42:29.004Z,8.63
2018-12-19T22:44:57.266Z,7.20
2018-12-19T22:47:25.292Z,10.07
2018-12-19T22:49:53.241Z,9.50
2018-12-19T22:52:21.547Z,9.43
2018-12-19T22:54:51.006Z,8.40
2018-12-19T22:57:20.589Z,8.87
2018-12-19T22:59:50.026Z,8.07
2018-12-19T23:02:23.650Z,10.50
2018-12-19T23:04:51.872Z,9.83
2018-12-19T23:07:20.069Z,9.07
2018-12-19T23:09:47.923Z,8.87
2018-12-19T23:12:15.835Z,9.60
2018-12-19T23:14:43.791Z,8.83
2018-12-19T23:17:17.221Z,8.83
2018-12-19T23:19:45.179Z,9.70
2018-12-19T23:22:13.274Z,8.73
2018-12-19T23:24:41.378Z,9.30
2018-12-19T23:27:09.115Z,8.63
2018-12-19T23:29:37.215Z,7.70
2018-12-19T23:32:05.101Z,9.07
2018-12-19T23:34:33.086Z,7.87
2018-12-19T23:37:01.137Z,8.33
2018-12-19T23:39:29.082Z,6.60
2018-12-19T23:41:57.017Z,8.00
2018-12-19T23:44:30.576Z,7.67
2018-12-19T23:46:59.018Z,6.97
2018-12-19T23:49:26.967Z,8.47
2018-12-19T23:51:54.875Z,7.80
2018-12-19T23:54:28.880Z,8.27
2018-12-19T23:56:52.960Z,8.17
2018-12-19T23:59:21.755Z,8.37
